ADDS METAR Data INFO
IDs: Format: Raw Decoded Include TAF

Data at: 1515 UTC 23 Oct 2017

METAR for:TJBQ (Aquadilla/Hernandez, --, PR)
Text:TJBQ 231450Z 06012KT 10SM SKC 29/23 A3004
Temperature: 29.0°C ( 84°F)
Dewpoint: 23.0°C ( 73°F) [RH = 70%]
Pressure (altimeter):30.04 inches Hg (1017.4 mb)
Winds:from the ENE (60 degrees) at 14 MPH (12 knots; 6.2 m/s)
Visibility:10 or more sm (16+ km)
Ceiling:at least 12,000 feet AGL
Clouds:clear skies